This is the latest recevied weather packets stored in our database for station/object XE3JAR-13. If no packets are shown the sender has not sent any weather packets the latest 10 day(s).
| Time | Temp. | Humidity | Pressure | Rain* | Wind** | Luminosity | Snow |
|---|---|---|---|---|---|---|---|
| 1778261392 | 42.78° C | 57% | 1014.2 hPa | - | - | - | - |
| 1778261085 | 42.78° C | 57% | 1014.2 hPa | - | - | - | - |
| 1778260782 | 42.22° C | 59% | 1014.2 hPa | - | - | - | - |
| 1778260481 | 42.22° C | 58% | 1014.2 hPa | - | - | - | - |
| 1778260177 | 42.78° C | 57% | 1014.6 hPa | - | - | - | - |
| 1778259872 | 42.78° C | 56% | 1014.6 hPa | - | - | - | - |
| 1778259570 | 45° C | 53% | 1014.6 hPa | - | - | - | - |
| 1778259267 | 42.78° C | 56% | 1014.6 hPa | - | - | - | - |
| 1778258970 | 42.78° C | 56% | 1014.9 hPa | - | - | - | - |
| 1778258657 | 42.22° C | 59% | 1014.9 hPa | - | - | - | - |
| 1778258356 | 42.22° C | 60% | 1014.9 hPa | - | - | - | - |
| 1778258060 | 40° C | 62% | 1014.9 hPa | - | - | - | - |
| 1778257442 | 41.11° C | 62% | 1014.9 hPa | - | - | - | - |
| 1778257143 | 40° C | 63% | 1015.2 hPa | - | - | - | - |
| 1778256835 | 40° C | 63% | 1015.2 hPa | - | - | - | - |
| 1778256534 | 40° C | 62% | 1015.2 hPa | - | - | - | - |
| 1778256228 | 38.89° C | 65% | 1015.2 hPa | - | - | - | - |
| 1778255923 | 38.89° C | 64% | 1015.2 hPa | - | - | - | - |
| 1778255617 | 37.78° C | 66% | 1015.2 hPa | - | - | - | - |
| 1778255313 | 37.78° C | 67% | 1015.2 hPa | - | - | - | - |
| 1778255013 | 38.89° C | 66% | 1015.2 hPa | - | - | - | - |
| 1778254708 | 37.78° C | 68% | 1015.2 hPa | - | - | - | - |
| 1778254405 | 37.22° C | 69% | 1015.2 hPa | - | - | - | - |
| 1778254104 | 36.11° C | 74% | 1015.2 hPa | - | - | - | - |
| 1778253794 | 35° C | 75% | 1015.2 hPa | - | - | - | - |
* Rain since midnight (hover to see other rain measurements)
** Current wind speed in m/s (hover to see current wind gust speed)